sensor_id;sensor_type;location;lat;lon;timestamp;P1;durP1;ratioP1;P2;durP2;ratioP2
8654;SDS011;13500;52.514;13.462;2023-04-28T00:00:00;10.30;;;5.50;;
8654;SDS011;13500;52.514;13.462;2023-04-28T00:02:31;10.63;;;6.13;;
8654;SDS011;13500;52.514;13.462;2023-04-28T00:05:01;10.83;;;5.77;;
8654;SDS011;13500;52.514;13.462;2023-04-28T00:07:30;6.80;;;5.53;;
8654;SDS011;13500;52.514;13.462;2023-04-28T00:09:58;8.57;;;5.70;;
8654;SDS011;13500;52.514;13.462;2023-04-28T00:12:26;12.87;;;6.00;;
8654;SDS011;13500;52.514;13.462;2023-04-28T00:14:53;11.90;;;6.33;;
8654;SDS011;13500;52.514;13.462;2023-04-28T00:17:21;9.80;;;6.60;;
8654;SDS011;13500;52.514;13.462;2023-04-28T00:19:49;9.00;;;6.17;;
8654;SDS011;13500;52.514;13.462;2023-04-28T00:22:19;9.30;;;5.60;;
8654;SDS011;13500;52.514;13.462;2023-04-28T00:24:47;8.70;;;5.80;;
8654;SDS011;13500;52.514;13.462;2023-04-28T00:27:15;10.60;;;5.60;;
8654;SDS011;13500;52.514;13.462;2023-04-28T00:29:43;8.87;;;6.40;;
8654;SDS011;13500;52.514;13.462;2023-04-28T00:32:11;9.63;;;6.20;;
8654;SDS011;13500;52.514;13.462;2023-04-28T00:34:39;10.33;;;7.03;;
8654;SDS011;13500;52.514;13.462;2023-04-28T00:37:07;9.73;;;6.10;;
8654;SDS011;13500;52.514;13.462;2023-04-28T00:39:37;8.90;;;5.63;;
8654;SDS011;13500;52.514;13.462;2023-04-28T00:42:06;9.07;;;5.77;;
8654;SDS011;13500;52.514;13.462;2023-04-28T00:44:34;8.17;;;5.70;;
8654;SDS011;13500;52.514;13.462;2023-04-28T00:47:02;10.00;;;5.90;;
8654;SDS011;13500;52.514;13.462;2023-04-28T00:49:31;10.37;;;6.93;;
8654;SDS011;13500;52.514;13.462;2023-04-28T00:52:00;11.90;;;6.37;;
8654;SDS011;13500;52.514;13.462;2023-04-28T00:54:32;10.63;;;6.57;;
8654;SDS011;13500;52.514;13.462;2023-04-28T00:57:01;14.73;;;6.87;;
8654;SDS011;13500;52.514;13.462;2023-04-28T00:59:30;12.90;;;6.83;;
8654;SDS011;13500;52.514;13.462;2023-04-28T01:01:58;13.60;;;7.50;;
8654;SDS011;13500;52.514;13.462;2023-04-28T01:04:27;14.47;;;6.93;;
8654;SDS011;13500;52.514;13.462;2023-04-28T01:06:56;10.50;;;5.97;;
8654;SDS011;13500;52.514;13.462;2023-04-28T01:09:24;9.30;;;5.50;;
8654;SDS011;13500;52.514;13.462;2023-04-28T01:11:53;10.33;;;5.57;;
8654;SDS011;13500;52.514;13.462;2023-04-28T01:14:43;10.93;;;5.70;;
8654;SDS011;13500;52.514;13.462;2023-04-28T01:17:11;9.50;;;5.00;;
8654;SDS011;13500;52.514;13.462;2023-04-28T01:19:40;6.80;;;5.10;;
8654;SDS011;13500;52.514;13.462;2023-04-28T01:22:07;9.27;;;5.00;;
8654;SDS011;13500;52.514;13.462;2023-04-28T01:24:38;8.00;;;4.63;;
8654;SDS011;13500;52.514;13.462;2023-04-28T01:27:07;11.10;;;5.03;;
8654;SDS011;13500;52.514;13.462;2023-04-28T01:29:37;9.87;;;5.23;;
8654;SDS011;13500;52.514;13.462;2023-04-28T01:32:05;7.53;;;5.10;;
8654;SDS011;13500;52.514;13.462;2023-04-28T01:34:33;8.37;;;4.70;;
8654;SDS011;13500;52.514;13.462;2023-04-28T01:37:04;8.43;;;4.97;;
8654;SDS011;13500;52.514;13.462;2023-04-28T01:39:32;7.93;;;5.03;;
8654;SDS011;13500;52.514;13.462;2023-04-28T01:42:03;6.87;;;4.80;;
8654;SDS011;13500;52.514;13.462;2023-04-28T01:44:31;8.20;;;4.80;;
8654;SDS011;13500;52.514;13.462;2023-04-28T01:46:59;8.97;;;4.70;;
8654;SDS011;13500;52.514;13.462;2023-04-28T01:49:27;7.93;;;4.53;;
8654;SDS011;13500;52.514;13.462;2023-04-28T01:51:55;5.63;;;4.10;;
8654;SDS011;13500;52.514;13.462;2023-04-28T01:54:23;7.40;;;4.20;;
8654;SDS011;13500;52.514;13.462;2023-04-28T01:56:51;6.97;;;4.83;;
8654;SDS011;13500;52.514;13.462;2023-04-28T01:59:21;7.97;;;4.50;;
8654;SDS011;13500;52.514;13.462;2023-04-28T02:01:49;5.20;;;3.90;;
8654;SDS011;13500;52.514;13.462;2023-04-28T02:04:17;6.13;;;4.17;;
8654;SDS011;13500;52.514;13.462;2023-04-28T02:06:45;9.40;;;4.53;;
8654;SDS011;13500;52.514;13.462;2023-04-28T02:09:13;5.70;;;4.00;;
8654;SDS011;13500;52.514;13.462;2023-04-28T02:11:41;7.40;;;4.17;;
8654;SDS011;13500;52.514;13.462;2023-04-28T02:14:09;5.47;;;4.20;;
8654;SDS011;13500;52.514;13.462;2023-04-28T02:16:38;6.30;;;4.20;;
8654;SDS011;13500;52.514;13.462;2023-04-28T02:19:06;5.70;;;3.93;;
8654;SDS011;13500;52.514;13.462;2023-04-28T02:21:34;5.17;;;3.80;;
8654;SDS011;13500;52.514;13.462;2023-04-28T02:24:02;6.57;;;4.13;;
8654;SDS011;13500;52.514;13.462;2023-04-28T02:26:32;7.73;;;4.70;;
8654;SDS011;13500;52.514;13.462;2023-04-28T02:29:00;6.40;;;4.13;;
8654;SDS011;13500;52.514;13.462;2023-04-28T02:31:31;5.07;;;3.83;;
8654;SDS011;13500;52.514;13.462;2023-04-28T02:34:00;8.77;;;4.50;;
8654;SDS011;13500;52.514;13.462;2023-04-28T02:36:28;9.13;;;4.80;;
8654;SDS011;13500;52.514;13.462;2023-04-28T02:38:57;7.47;;;4.20;;
8654;SDS011;13500;52.514;13.462;2023-04-28T02:41:25;6.97;;;4.10;;
8654;SDS011;13500;52.514;13.462;2023-04-28T02:43:55;6.57;;;3.80;;
8654;SDS011;13500;52.514;13.462;2023-04-28T02:46:23;5.97;;;3.97;;
8654;SDS011;13500;52.514;13.462;2023-04-28T02:48:51;5.13;;;3.53;;
8654;SDS011;13500;52.514;13.462;2023-04-28T02:51:20;7.40;;;3.87;;
8654;SDS011;13500;52.514;13.462;2023-04-28T02:53:48;5.87;;;3.57;;
8654;SDS011;13500;52.514;13.462;2023-04-28T02:56:16;6.63;;;3.77;;
8654;SDS011;13500;52.514;13.462;2023-04-28T02:58:44;7.90;;;3.70;;
8654;SDS011;13500;52.514;13.462;2023-04-28T03:01:12;5.97;;;3.93;;
8654;SDS011;13500;52.514;13.462;2023-04-28T03:03:40;5.07;;;3.33;;
8654;SDS011;13500;52.514;13.462;2023-04-28T03:06:08;5.80;;;3.93;;
8654;SDS011;13500;52.514;13.462;2023-04-28T03:08:37;5.77;;;3.60;;
8654;SDS011;13500;52.514;13.462;2023-04-28T03:11:05;4.10;;;3.23;;
8654;SDS011;13500;52.514;13.462;2023-04-28T03:13:33;5.27;;;3.73;;
8654;SDS011;13500;52.514;13.462;2023-04-28T03:16:02;5.37;;;3.47;;
8654;SDS011;13500;52.514;13.462;2023-04-28T03:18:30;5.20;;;3.63;;
8654;SDS011;13500;52.514;13.462;2023-04-28T03:20:58;6.03;;;3.53;;
8654;SDS011;13500;52.514;13.462;2023-04-28T03:23:27;6.10;;;3.83;;
8654;SDS011;13500;52.514;13.462;2023-04-28T03:25:56;6.77;;;3.20;;
8654;SDS011;13500;52.514;13.462;2023-04-28T03:28:25;7.10;;;3.87;;
8654;SDS011;13500;52.514;13.462;2023-04-28T03:30:53;6.83;;;3.57;;
8654;SDS011;13500;52.514;13.462;2023-04-28T03:33:21;6.87;;;3.80;;
8654;SDS011;13500;52.514;13.462;2023-04-28T03:35:49;6.10;;;3.73;;
8654;SDS011;13500;52.514;13.462;2023-04-28T03:38:19;6.03;;;3.50;;
8654;SDS011;13500;52.514;13.462;2023-04-28T03:40:47;5.20;;;3.90;;
8654;SDS011;13500;52.514;13.462;2023-04-28T03:43:38;7.00;;;3.77;;
8654;SDS011;13500;52.514;13.462;2023-04-28T03:46:12;6.07;;;3.63;;
8654;SDS011;13500;52.514;13.462;2023-04-28T03:48:40;11.10;;;5.10;;
8654;SDS011;13500;52.514;13.462;2023-04-28T03:51:09;7.37;;;4.00;;
8654;SDS011;13500;52.514;13.462;2023-04-28T03:53:37;7.33;;;4.03;;
8654;SDS011;13500;52.514;13.462;2023-04-28T03:56:05;7.43;;;4.13;;
8654;SDS011;13500;52.514;13.462;2023-04-28T03:58:33;7.40;;;4.10;;
8654;SDS011;13500;52.514;13.462;2023-04-28T04:01:03;8.60;;;4.10;;
8654;SDS011;13500;52.514;13.462;2023-04-28T04:03:31;7.77;;;3.83;;
8654;SDS011;13500;52.514;13.462;2023-04-28T04:05:59;6.83;;;3.90;;
8654;SDS011;13500;52.514;13.462;2023-04-28T04:08:28;6.20;;;3.80;;
8654;SDS011;13500;52.514;13.462;2023-04-28T04:10:56;6.20;;;3.73;;
8654;SDS011;13500;52.514;13.462;2023-04-28T04:13:23;6.87;;;4.07;;
8654;SDS011;13500;52.514;13.462;2023-04-28T04:15:52;6.13;;;3.73;;
8654;SDS011;13500;52.514;13.462;2023-04-28T04:18:23;7.53;;;3.80;;
8654;SDS011;13500;52.514;13.462;2023-04-28T04:21:10;7.27;;;3.93;;
8654;SDS011;13500;52.514;13.462;2023-04-28T04:23:38;6.97;;;3.80;;
8654;SDS011;13500;52.514;13.462;2023-04-28T04:26:06;8.90;;;3.77;;
8654;SDS011;13500;52.514;13.462;2023-04-28T04:28:35;6.70;;;3.90;;
8654;SDS011;13500;52.514;13.462;2023-04-28T04:31:05;4.73;;;3.70;;
8654;SDS011;13500;52.514;13.462;2023-04-28T04:33:35;6.13;;;3.67;;
8654;SDS011;13500;52.514;13.462;2023-04-28T04:36:05;7.40;;;4.10;;
8654;SDS011;13500;52.514;13.462;2023-04-28T04:38:33;5.40;;;3.63;;
8654;SDS011;13500;52.514;13.462;2023-04-28T04:41:11;6.03;;;4.10;;
8654;SDS011;13500;52.514;13.462;2023-04-28T04:43:39;5.47;;;3.83;;
8654;SDS011;13500;52.514;13.462;2023-04-28T04:46:07;5.00;;;3.43;;
8654;SDS011;13500;52.514;13.462;2023-04-28T04:48:36;5.70;;;3.93;;
8654;SDS011;13500;52.514;13.462;2023-04-28T04:51:04;5.77;;;4.27;;
8654;SDS011;13500;52.514;13.462;2023-04-28T04:53:33;6.87;;;3.73;;
8654;SDS011;13500;52.514;13.462;2023-04-28T04:56:01;6.57;;;3.80;;
8654;SDS011;13500;52.514;13.462;2023-04-28T04:58:30;5.80;;;4.00;;
8654;SDS011;13500;52.514;13.462;2023-04-28T05:01:18;6.83;;;3.90;;
8654;SDS011;13500;52.514;13.462;2023-04-28T05:03:47;6.47;;;3.80;;
8654;SDS011;13500;52.514;13.462;2023-04-28T05:06:16;8.73;;;4.00;;
8654;SDS011;13500;52.514;13.462;2023-04-28T05:08:46;10.03;;;5.53;;
8654;SDS011;13500;52.514;13.462;2023-04-28T05:11:15;8.43;;;4.10;;
8654;SDS011;13500;52.514;13.462;2023-04-28T05:13:43;7.07;;;3.50;;
8654;SDS011;13500;52.514;13.462;2023-04-28T05:16:11;7.20;;;4.03;;
8654;SDS011;13500;52.514;13.462;2023-04-28T05:19:01;4.63;;;3.60;;
8654;SDS011;13500;52.514;13.462;2023-04-28T05:21:29;7.03;;;4.37;;
8654;SDS011;13500;52.514;13.462;2023-04-28T05:23:58;6.53;;;3.80;;
8654;SDS011;13500;52.514;13.462;2023-04-28T05:26:26;6.20;;;4.00;;
8654;SDS011;13500;52.514;13.462;2023-04-28T05:28:57;7.50;;;3.63;;
8654;SDS011;13500;52.514;13.462;2023-04-28T05:31:25;4.97;;;3.47;;
8654;SDS011;13500;52.514;13.462;2023-04-28T05:33:53;8.23;;;4.27;;
8654;SDS011;13500;52.514;13.462;2023-04-28T05:36:23;5.60;;;4.00;;
8654;SDS011;13500;52.514;13.462;2023-04-28T05:38:52;9.27;;;3.93;;
8654;SDS011;13500;52.514;13.462;2023-04-28T05:41:20;5.97;;;3.90;;
8654;SDS011;13500;52.514;13.462;2023-04-28T05:43:48;7.13;;;4.10;;
8654;SDS011;13500;52.514;13.462;2023-04-28T05:46:17;8.30;;;3.90;;
8654;SDS011;13500;52.514;13.462;2023-04-28T05:48:57;8.67;;;4.30;;
8654;SDS011;13500;52.514;13.462;2023-04-28T05:51:31;6.67;;;4.10;;
8654;SDS011;13500;52.514;13.462;2023-04-28T05:54:00;7.60;;;4.00;;
8654;SDS011;13500;52.514;13.462;2023-04-28T05:56:30;5.90;;;4.03;;
8654;SDS011;13500;52.514;13.462;2023-04-28T05:58:59;7.17;;;4.10;;
8654;SDS011;13500;52.514;13.462;2023-04-28T06:01:29;15.37;;;4.90;;
8654;SDS011;13500;52.514;13.462;2023-04-28T06:03:57;8.07;;;5.00;;
8654;SDS011;13500;52.514;13.462;2023-04-28T06:06:26;7.30;;;4.57;;
8654;SDS011;13500;52.514;13.462;2023-04-28T06:08:56;8.30;;;4.70;;
8654;SDS011;13500;52.514;13.462;2023-04-28T06:11:24;7.03;;;4.60;;
8654;SDS011;13500;52.514;13.462;2023-04-28T06:13:52;7.53;;;4.80;;
8654;SDS011;13500;52.514;13.462;2023-04-28T06:16:20;7.33;;;4.50;;
8654;SDS011;13500;52.514;13.462;2023-04-28T06:18:49;5.50;;;4.67;;
8654;SDS011;13500;52.514;13.462;2023-04-28T06:21:17;8.90;;;5.17;;
8654;SDS011;13500;52.514;13.462;2023-04-28T06:23:46;8.23;;;5.10;;
8654;SDS011;13500;52.514;13.462;2023-04-28T06:26:16;8.43;;;4.23;;
8654;SDS011;13500;52.514;13.462;2023-04-28T06:28:44;11.37;;;4.60;;
8654;SDS011;13500;52.514;13.462;2023-04-28T06:31:12;7.13;;;3.70;;
8654;SDS011;13500;52.514;13.462;2023-04-28T06:33:40;8.53;;;4.43;;
8654;SDS011;13500;52.514;13.462;2023-04-28T06:36:08;8.80;;;4.30;;
8654;SDS011;13500;52.514;13.462;2023-04-28T06:38:42;10.27;;;4.40;;
8654;SDS011;13500;52.514;13.462;2023-04-28T06:41:10;9.87;;;5.00;;
8654;SDS011;13500;52.514;13.462;2023-04-28T06:43:41;6.43;;;3.80;;
8654;SDS011;13500;52.514;13.462;2023-04-28T06:46:20;6.27;;;3.27;;
8654;SDS011;13500;52.514;13.462;2023-04-28T06:48:48;5.77;;;3.70;;
8654;SDS011;13500;52.514;13.462;2023-04-28T06:51:16;6.70;;;3.40;;
8654;SDS011;13500;52.514;13.462;2023-04-28T06:53:44;5.00;;;3.93;;
8654;SDS011;13500;52.514;13.462;2023-04-28T06:56:12;5.53;;;3.20;;
8654;SDS011;13500;52.514;13.462;2023-04-28T06:58:42;5.50;;;3.27;;
8654;SDS011;13500;52.514;13.462;2023-04-28T07:01:10;9.73;;;3.93;;
8654;SDS011;13500;52.514;13.462;2023-04-28T07:03:38;6.60;;;3.80;;
8654;SDS011;13500;52.514;13.462;2023-04-28T07:06:06;4.90;;;3.10;;
8654;SDS011;13500;52.514;13.462;2023-04-28T07:08:34;6.03;;;3.57;;
8654;SDS011;13500;52.514;13.462;2023-04-28T07:11:02;6.73;;;3.50;;
8654;SDS011;13500;52.514;13.462;2023-04-28T07:13:31;5.30;;;3.33;;
8654;SDS011;13500;52.514;13.462;2023-04-28T07:16:00;6.30;;;3.20;;
8654;SDS011;13500;52.514;13.462;2023-04-28T07:18:29;8.40;;;3.43;;
8654;SDS011;13500;52.514;13.462;2023-04-28T07:20:57;11.07;;;3.87;;
8654;SDS011;13500;52.514;13.462;2023-04-28T07:23:24;5.60;;;3.20;;
8654;SDS011;13500;52.514;13.462;2023-04-28T07:25:52;7.50;;;3.60;;
8654;SDS011;13500;52.514;13.462;2023-04-28T07:28:20;5.03;;;3.30;;
8654;SDS011;13500;52.514;13.462;2023-04-28T07:30:48;5.67;;;2.97;;
8654;SDS011;13500;52.514;13.462;2023-04-28T07:33:18;8.23;;;3.67;;
8654;SDS011;13500;52.514;13.462;2023-04-28T07:35:46;9.87;;;3.63;;
8654;SDS011;13500;52.514;13.462;2023-04-28T07:38:15;4.07;;;2.67;;
8654;SDS011;13500;52.514;13.462;2023-04-28T07:40:43;5.40;;;3.17;;
8654;SDS011;13500;52.514;13.462;2023-04-28T07:43:12;5.53;;;3.73;;
8654;SDS011;13500;52.514;13.462;2023-04-28T07:45:39;4.67;;;3.60;;
8654;SDS011;13500;52.514;13.462;2023-04-28T07:48:10;5.63;;;3.30;;
8654;SDS011;13500;52.514;13.462;2023-04-28T07:50:40;7.07;;;3.50;;
8654;SDS011;13500;52.514;13.462;2023-04-28T07:53:08;6.93;;;3.97;;
8654;SDS011;13500;52.514;13.462;2023-04-28T07:55:36;5.47;;;3.63;;
8654;SDS011;13500;52.514;13.462;2023-04-28T07:58:04;6.80;;;3.70;;
8654;SDS011;13500;52.514;13.462;2023-04-28T08:00:31;7.30;;;3.33;;
8654;SDS011;13500;52.514;13.462;2023-04-28T08:02:59;5.80;;;4.00;;
8654;SDS011;13500;52.514;13.462;2023-04-28T08:05:27;7.13;;;3.70;;
8654;SDS011;13500;52.514;13.462;2023-04-28T08:07:57;8.23;;;3.73;;
8654;SDS011;13500;52.514;13.462;2023-04-28T08:10:25;4.93;;;3.50;;
8654;SDS011;13500;52.514;13.462;2023-04-28T08:12:54;7.43;;;3.70;;
8654;SDS011;13500;52.514;13.462;2023-04-28T08:15:22;5.97;;;3.13;;
8654;SDS011;13500;52.514;13.462;2023-04-28T08:17:51;7.87;;;3.80;;
8654;SDS011;13500;52.514;13.462;2023-04-28T08:20:19;4.73;;;3.40;;
8654;SDS011;13500;52.514;13.462;2023-04-28T08:22:50;7.67;;;3.77;;
8654;SDS011;13500;52.514;13.462;2023-04-28T08:25:19;6.90;;;3.53;;
8654;SDS011;13500;52.514;13.462;2023-04-28T08:27:47;5.37;;;3.97;;
8654;SDS011;13500;52.514;13.462;2023-04-28T08:30:15;6.17;;;4.40;;
8654;SDS011;13500;52.514;13.462;2023-04-28T08:32:43;9.03;;;4.00;;
8654;SDS011;13500;52.514;13.462;2023-04-28T08:35:11;5.43;;;3.57;;
8654;SDS011;13500;52.514;13.462;2023-04-28T08:37:41;9.17;;;3.70;;
8654;SDS011;13500;52.514;13.462;2023-04-28T08:40:10;6.13;;;4.07;;
8654;SDS011;13500;52.514;13.462;2023-04-28T08:42:39;9.57;;;5.73;;
8654;SDS011;13500;52.514;13.462;2023-04-28T08:45:11;8.07;;;4.10;;
8654;SDS011;13500;52.514;13.462;2023-04-28T08:47:40;6.43;;;3.53;;
8654;SDS011;13500;52.514;13.462;2023-04-28T08:50:12;6.70;;;3.83;;
8654;SDS011;13500;52.514;13.462;2023-04-28T08:52:41;5.70;;;4.00;;
8654;SDS011;13500;52.514;13.462;2023-04-28T08:55:09;6.13;;;4.00;;
8654;SDS011;13500;52.514;13.462;2023-04-28T08:57:41;7.30;;;3.77;;
8654;SDS011;13500;52.514;13.462;2023-04-28T09:00:10;7.17;;;4.00;;
8654;SDS011;13500;52.514;13.462;2023-04-28T09:02:39;8.97;;;4.53;;
8654;SDS011;13500;52.514;13.462;2023-04-28T09:05:09;6.10;;;3.90;;
8654;SDS011;13500;52.514;13.462;2023-04-28T09:07:38;6.13;;;4.40;;
8654;SDS011;13500;52.514;13.462;2023-04-28T09:10:17;7.93;;;3.60;;
8654;SDS011;13500;52.514;13.462;2023-04-28T09:12:49;6.00;;;3.70;;
8654;SDS011;13500;52.514;13.462;2023-04-28T09:15:24;9.43;;;3.90;;
8654;SDS011;13500;52.514;13.462;2023-04-28T09:17:53;5.80;;;3.90;;
8654;SDS011;13500;52.514;13.462;2023-04-28T09:20:22;6.90;;;4.37;;
8654;SDS011;13500;52.514;13.462;2023-04-28T09:22:51;9.40;;;4.53;;
8654;SDS011;13500;52.514;13.462;2023-04-28T09:25:20;25.83;;;5.53;;
8654;SDS011;13500;52.514;13.462;2023-04-28T09:27:50;8.00;;;4.70;;
8654;SDS011;13500;52.514;13.462;2023-04-28T09:30:18;7.33;;;4.37;;
8654;SDS011;13500;52.514;13.462;2023-04-28T09:32:51;8.20;;;4.13;;
8654;SDS011;13500;52.514;13.462;2023-04-28T09:35:40;4.37;;;3.97;;
8654;SDS011;13500;52.514;13.462;2023-04-28T09:38:08;6.00;;;3.90;;
8654;SDS011;13500;52.514;13.462;2023-04-28T09:40:49;7.70;;;4.57;;
8654;SDS011;13500;52.514;13.462;2023-04-28T09:43:24;7.57;;;4.87;;
8654;SDS011;13500;52.514;13.462;2023-04-28T09:45:54;4.90;;;4.10;;
8654;SDS011;13500;52.514;13.462;2023-04-28T09:48:26;7.83;;;4.60;;
8654;SDS011;13500;52.514;13.462;2023-04-28T09:50:55;20.47;;;5.00;;
8654;SDS011;13500;52.514;13.462;2023-04-28T09:53:24;6.53;;;4.20;;
8654;SDS011;13500;52.514;13.462;2023-04-28T09:55:53;6.57;;;4.20;;
8654;SDS011;13500;52.514;13.462;2023-04-28T09:58:23;6.60;;;4.33;;
8654;SDS011;13500;52.514;13.462;2023-04-28T10:00:53;10.97;;;4.77;;
8654;SDS011;13500;52.514;13.462;2023-04-28T10:03:22;8.93;;;4.30;;
8654;SDS011;13500;52.514;13.462;2023-04-28T10:05:55;6.67;;;4.60;;
8654;SDS011;13500;52.514;13.462;2023-04-28T10:08:24;10.70;;;4.47;;
8654;SDS011;13500;52.514;13.462;2023-04-28T10:10:53;6.87;;;4.23;;
8654;SDS011;13500;52.514;13.462;2023-04-28T10:13:24;8.70;;;5.40;;
8654;SDS011;13500;52.514;13.462;2023-04-28T10:15:52;6.20;;;3.90;;
8654;SDS011;13500;52.514;13.462;2023-04-28T10:18:22;6.67;;;4.53;;
8654;SDS011;13500;52.514;13.462;2023-04-28T10:20:52;6.20;;;4.03;;
8654;SDS011;13500;52.514;13.462;2023-04-28T10:26:35;7.43;;;4.67;;
8654;SDS011;13500;52.514;13.462;2023-04-28T10:29:43;8.33;;;4.60;;
8654;SDS011;13500;52.514;13.462;2023-04-28T10:32:19;9.67;;;4.17;;
8654;SDS011;13500;52.514;13.462;2023-04-28T10:34:48;6.17;;;4.20;;
8654;SDS011;13500;52.514;13.462;2023-04-28T10:37:17;6.43;;;4.03;;
8654;SDS011;13500;52.514;13.462;2023-04-28T10:42:53;7.40;;;4.83;;
8654;SDS011;13500;52.514;13.462;2023-04-28T10:51:33;7.03;;;4.37;;
8654;SDS011;13500;52.514;13.462;2023-04-28T10:54:14;6.33;;;3.90;;
8654;SDS011;13500;52.514;13.462;2023-04-28T10:59:49;5.50;;;4.10;;
8654;SDS011;13500;52.514;13.462;2023-04-28T11:05:18;6.60;;;3.60;;
8654;SDS011;13500;52.514;13.462;2023-04-28T11:13:47;5.80;;;3.70;;
8654;SDS011;13500;52.514;13.462;2023-04-28T11:16:17;7.57;;;4.33;;
8654;SDS011;13500;52.514;13.462;2023-04-28T11:18:51;7.30;;;4.20;;
8654;SDS011;13500;52.514;13.462;2023-04-28T11:21:22;9.70;;;4.20;;
8654;SDS011;13500;52.514;13.462;2023-04-28T11:23:50;8.37;;;4.70;;
8654;SDS011;13500;52.514;13.462;2023-04-28T11:26:19;7.80;;;4.17;;
8654;SDS011;13500;52.514;13.462;2023-04-28T11:28:49;7.13;;;4.47;;
8654;SDS011;13500;52.514;13.462;2023-04-28T11:31:18;10.00;;;4.70;;
8654;SDS011;13500;52.514;13.462;2023-04-28T11:33:51;5.17;;;3.93;;
8654;SDS011;13500;52.514;13.462;2023-04-28T11:36:25;8.77;;;4.90;;
8654;SDS011;13500;52.514;13.462;2023-04-28T11:38:54;9.97;;;4.47;;
8654;SDS011;13500;52.514;13.462;2023-04-28T11:41:23;8.87;;;4.43;;
8654;SDS011;13500;52.514;13.462;2023-04-28T11:43:52;6.47;;;4.10;;
8654;SDS011;13500;52.514;13.462;2023-04-28T11:46:21;7.30;;;4.23;;
8654;SDS011;13500;52.514;13.462;2023-04-28T11:48:59;6.70;;;4.50;;
8654;SDS011;13500;52.514;13.462;2023-04-28T11:51:29;7.77;;;4.97;;
8654;SDS011;13500;52.514;13.462;2023-04-28T11:53:58;7.83;;;4.53;;
8654;SDS011;13500;52.514;13.462;2023-04-28T11:56:28;11.23;;;4.63;;
8654;SDS011;13500;52.514;13.462;2023-04-28T11:59:00;7.20;;;5.10;;
8654;SDS011;13500;52.514;13.462;2023-04-28T12:01:30;6.40;;;5.17;;
8654;SDS011;13500;52.514;13.462;2023-04-28T12:03:59;8.07;;;4.47;;
8654;SDS011;13500;52.514;13.462;2023-04-28T12:06:28;8.70;;;4.93;;
8654;SDS011;13500;52.514;13.462;2023-04-28T12:08:56;7.83;;;4.70;;
8654;SDS011;13500;52.514;13.462;2023-04-28T12:11:29;8.63;;;4.67;;
8654;SDS011;13500;52.514;13.462;2023-04-28T12:14:06;6.93;;;4.70;;
8654;SDS011;13500;52.514;13.462;2023-04-28T12:16:39;11.10;;;4.60;;
8654;SDS011;13500;52.514;13.462;2023-04-28T12:19:11;9.87;;;5.10;;
8654;SDS011;13500;52.514;13.462;2023-04-28T12:21:40;7.50;;;5.07;;
8654;SDS011;13500;52.514;13.462;2023-04-28T12:24:18;6.80;;;4.97;;
8654;SDS011;13500;52.514;13.462;2023-04-28T12:26:48;5.40;;;4.80;;
8654;SDS011;13500;52.514;13.462;2023-04-28T12:32:04;8.80;;;4.73;;
8654;SDS011;13500;52.514;13.462;2023-04-28T12:34:34;8.50;;;4.80;;
8654;SDS011;13500;52.514;13.462;2023-04-28T12:37:03;7.37;;;5.33;;
8654;SDS011;13500;52.514;13.462;2023-04-28T12:39:31;6.73;;;4.93;;
8654;SDS011;13500;52.514;13.462;2023-04-28T12:42:04;7.47;;;5.47;;
8654;SDS011;13500;52.514;13.462;2023-04-28T12:44:32;8.23;;;4.90;;
8654;SDS011;13500;52.514;13.462;2023-04-28T12:47:02;7.03;;;5.17;;
8654;SDS011;13500;52.514;13.462;2023-04-28T12:49:30;8.50;;;4.80;;
8654;SDS011;13500;52.514;13.462;2023-04-28T12:52:00;8.10;;;5.07;;
8654;SDS011;13500;52.514;13.462;2023-04-28T12:54:28;10.27;;;4.90;;
8654;SDS011;13500;52.514;13.462;2023-04-28T12:56:56;8.23;;;5.10;;
8654;SDS011;13500;52.514;13.462;2023-04-28T12:59:24;7.70;;;5.33;;
8654;SDS011;13500;52.514;13.462;2023-04-28T13:01:52;9.53;;;4.97;;
8654;SDS011;13500;52.514;13.462;2023-04-28T13:04:20;7.57;;;5.07;;
8654;SDS011;13500;52.514;13.462;2023-04-28T13:06:49;9.93;;;4.97;;
8654;SDS011;13500;52.514;13.462;2023-04-28T13:09:18;8.97;;;4.77;;
8654;SDS011;13500;52.514;13.462;2023-04-28T13:11:46;10.90;;;4.80;;
8654;SDS011;13500;52.514;13.462;2023-04-28T13:14:14;7.27;;;4.60;;
8654;SDS011;13500;52.514;13.462;2023-04-28T13:16:42;10.47;;;4.60;;
8654;SDS011;13500;52.514;13.462;2023-04-28T13:19:10;8.93;;;4.93;;
8654;SDS011;13500;52.514;13.462;2023-04-28T13:21:39;8.33;;;4.83;;
8654;SDS011;13500;52.514;13.462;2023-04-28T13:24:08;5.60;;;4.27;;
8654;SDS011;13500;52.514;13.462;2023-04-28T13:26:38;11.93;;;5.00;;
8654;SDS011;13500;52.514;13.462;2023-04-28T13:29:06;11.37;;;5.30;;
8654;SDS011;13500;52.514;13.462;2023-04-28T13:31:34;10.70;;;4.97;;
8654;SDS011;13500;52.514;13.462;2023-04-28T13:34:02;7.30;;;4.57;;
8654;SDS011;13500;52.514;13.462;2023-04-28T13:36:31;10.33;;;4.43;;
8654;SDS011;13500;52.514;13.462;2023-04-28T13:38:59;8.63;;;4.50;;
8654;SDS011;13500;52.514;13.462;2023-04-28T13:41:28;9.93;;;4.50;;
8654;SDS011;13500;52.514;13.462;2023-04-28T13:43:57;7.03;;;4.40;;
8654;SDS011;13500;52.514;13.462;2023-04-28T13:46:26;7.00;;;4.73;;
8654;SDS011;13500;52.514;13.462;2023-04-28T13:48:54;9.30;;;5.13;;
8654;SDS011;13500;52.514;13.462;2023-04-28T13:51:22;10.63;;;5.17;;
8654;SDS011;13500;52.514;13.462;2023-04-28T13:53:50;7.90;;;4.77;;
8654;SDS011;13500;52.514;13.462;2023-04-28T13:56:18;9.07;;;5.03;;
8654;SDS011;13500;52.514;13.462;2023-04-28T13:58:47;8.23;;;4.70;;
8654;SDS011;13500;52.514;13.462;2023-04-28T14:01:16;7.23;;;4.83;;
8654;SDS011;13500;52.514;13.462;2023-04-28T14:03:44;8.57;;;4.90;;
8654;SDS011;13500;52.514;13.462;2023-04-28T14:06:12;9.03;;;5.03;;
8654;SDS011;13500;52.514;13.462;2023-04-28T14:08:40;7.93;;;5.03;;
8654;SDS011;13500;52.514;13.462;2023-04-28T14:11:08;7.83;;;4.70;;
8654;SDS011;13500;52.514;13.462;2023-04-28T14:13:37;6.97;;;5.07;;
8654;SDS011;13500;52.514;13.462;2023-04-28T14:16:05;9.77;;;4.87;;
8654;SDS011;13500;52.514;13.462;2023-04-28T14:18:35;7.63;;;4.57;;
8654;SDS011;13500;52.514;13.462;2023-04-28T14:21:03;8.17;;;5.03;;
8654;SDS011;13500;52.514;13.462;2023-04-28T14:23:33;7.83;;;4.87;;
8654;SDS011;13500;52.514;13.462;2023-04-28T14:26:01;5.73;;;4.23;;
8654;SDS011;13500;52.514;13.462;2023-04-28T14:28:30;6.87;;;4.93;;
8654;SDS011;13500;52.514;13.462;2023-04-28T14:31:01;7.53;;;4.60;;
8654;SDS011;13500;52.514;13.462;2023-04-28T14:33:31;8.03;;;4.60;;
8654;SDS011;13500;52.514;13.462;2023-04-28T14:36:00;6.93;;;4.90;;
8654;SDS011;13500;52.514;13.462;2023-04-28T14:38:28;8.10;;;5.20;;
8654;SDS011;13500;52.514;13.462;2023-04-28T14:40:56;6.17;;;5.00;;
8654;SDS011;13500;52.514;13.462;2023-04-28T14:43:24;6.43;;;4.90;;
8654;SDS011;13500;52.514;13.462;2023-04-28T14:45:52;12.23;;;4.77;;
8654;SDS011;13500;52.514;13.462;2023-04-28T14:48:20;8.47;;;4.80;;
8654;SDS011;13500;52.514;13.462;2023-04-28T14:50:48;8.27;;;4.80;;
8654;SDS011;13500;52.514;13.462;2023-04-28T14:53:18;7.20;;;4.70;;
8654;SDS011;13500;52.514;13.462;2023-04-28T14:55:46;8.20;;;4.93;;
8654;SDS011;13500;52.514;13.462;2023-04-28T14:58:14;9.47;;;4.80;;
8654;SDS011;13500;52.514;13.462;2023-04-28T15:00:42;8.43;;;5.00;;
8654;SDS011;13500;52.514;13.462;2023-04-28T15:03:10;8.70;;;4.53;;
8654;SDS011;13500;52.514;13.462;2023-04-28T15:05:38;6.73;;;4.70;;
8654;SDS011;13500;52.514;13.462;2023-04-28T15:08:06;8.37;;;4.87;;
8654;SDS011;13500;52.514;13.462;2023-04-28T15:10:37;8.93;;;4.47;;
8654;SDS011;13500;52.514;13.462;2023-04-28T15:13:06;7.13;;;4.20;;
8654;SDS011;13500;52.514;13.462;2023-04-28T15:15:34;7.17;;;4.60;;
8654;SDS011;13500;52.514;13.462;2023-04-28T15:18:02;7.43;;;5.03;;
8654;SDS011;13500;52.514;13.462;2023-04-28T15:20:30;6.90;;;4.80;;
8654;SDS011;13500;52.514;13.462;2023-04-28T15:22:59;7.83;;;4.90;;
8654;SDS011;13500;52.514;13.462;2023-04-28T15:25:27;9.43;;;4.50;;